首页
METAR-TAF:

METAR-TAF

机场 :

塔拉兹, 哈萨克斯坦

纬度: 42-51-13N, 经度: 071-18-13E, 海拔: 666米

当前天气观测

该预报发布于25分钟前的01:30 UTC
风速4节,风向南转西南,在西转西南之间变化
温度 21°C
湿度 40%
气压 1012 hPa
能见度10公里或以上

METAR: UADD 310130Z 21002MPS 180V240 9999 NSC 21/07 Q1012 R13/0///65 NOSIG RMK QFE702/0936

时间: 07:55 (01:55 UTC)

预报

该预报发布于2小时和55分钟前的23:00 UTC
预报有效从31日的 00点(UTC)到 31日的 09点(UTC)
风速10节,风向西南,有时为19节阵风
能见度10公里或以上

TAF: UADD 302300Z 3100/3109 22005G10MPS 9999 NSC

超过4000个机场的气象观测和天气预报(METAR&TAF报告)。

可查询的气象台以黄色和红色小点在地图上表示。

将鼠标移到小点上方,可查看气象台名称。

然后点击查看天气观测和预报。

如需切换地图:点击带黑十字的绿色按钮放大地图;点击带横线的绿色按钮缩小地图;或者点击绿色箭头查看邻近地区的地图。


METAR-TAF: